createdAt,value
2023-03-24T00:01:23.579Z,13.41
2023-03-24T00:03:51.362Z,13.36
2023-03-24T00:06:18.295Z,13.04
2023-03-24T00:08:47.253Z,13.40
2023-03-24T00:11:14.168Z,11.75
2023-03-24T00:13:40.940Z,13.38
2023-03-24T00:16:09.775Z,13.28
2023-03-24T00:18:36.742Z,11.57
2023-03-24T00:21:04.121Z,13.34
2023-03-24T00:23:31.879Z,13.28
2023-03-24T00:26:05.308Z,13.38
2023-03-24T00:28:32.956Z,13.00
2023-03-24T00:31:01.340Z,13.43
2023-03-24T00:33:32.091Z,13.50
2023-03-24T00:35:59.631Z,13.29
2023-03-24T00:38:26.340Z,12.86
2023-03-24T00:40:52.948Z,13.12
2023-03-24T00:43:19.541Z,13.36
2023-03-24T00:45:46.086Z,8.45
2023-03-24T00:48:17.300Z,13.22
2023-03-24T00:50:51.109Z,13.20
2023-03-24T00:53:18.194Z,13.17
2023-03-24T00:55:47.157Z,11.36
2023-03-24T00:58:22.817Z,13.11
2023-03-24T01:00:51.136Z,12.03
2023-03-24T01:03:21.268Z,13.21
2023-03-24T01:05:47.852Z,12.47
2023-03-24T01:08:19.553Z,12.47
2023-03-24T01:10:52.451Z,13.01
2023-03-24T01:13:24.332Z,11.35
2023-03-24T01:15:51.461Z,13.05
2023-03-24T01:18:18.104Z,12.88
2023-03-24T01:20:46.498Z,13.01
2023-03-24T01:23:16.193Z,12.99
2023-03-24T01:25:44.768Z,12.87
2023-03-24T01:28:16.521Z,13.03
2023-03-24T01:30:43.105Z,12.98
2023-03-24T01:33:09.992Z,12.87
2023-03-24T01:35:36.343Z,12.95
2023-03-24T01:38:10.904Z,13.01
2023-03-24T01:40:39.988Z,12.74
2023-03-24T01:43:09.364Z,13.06
2023-03-24T01:45:38.845Z,13.01
2023-03-24T01:48:07.238Z,13.01
2023-03-24T01:50:33.552Z,11.05
2023-03-24T01:53:00.600Z,13.19
2023-03-24T01:55:27.967Z,13.10
2023-03-24T01:57:58.465Z,13.07
2023-03-24T02:00:25.216Z,12.97
2023-03-24T02:02:57.895Z,12.95
2023-03-24T02:05:32.221Z,12.87
2023-03-24T02:08:07.832Z,13.02
2023-03-24T02:10:35.740Z,12.08
2023-03-24T02:13:03.847Z,13.06
2023-03-24T02:15:31.248Z,12.94
2023-03-24T02:18:20.267Z,13.08
2023-03-24T02:21:14.201Z,13.07
2023-03-24T02:24:17.808Z,13.00
2023-03-24T02:27:04.345Z,13.12
2023-03-24T02:29:40.077Z,13.13
2023-03-24T02:32:20.670Z,13.08
2023-03-24T02:35:17.632Z,13.09
2023-03-24T02:38:05.251Z,13.01
2023-03-24T02:41:01.189Z,13.16
2023-03-24T02:44:04.812Z,12.89
2023-03-24T02:46:55.313Z,12.97
2023-03-24T02:49:29.877Z,12.90
2023-03-24T02:52:17.577Z,13.03
2023-03-24T02:55:08.257Z,12.98
2023-03-24T02:57:43.029Z,13.05
2023-03-24T03:00:46.432Z,13.06
2023-03-24T03:03:26.516Z,13.11
2023-03-24T03:05:57.968Z,13.24
2023-03-24T03:08:27.230Z,13.00
2023-03-24T03:10:54.480Z,13.13
2023-03-24T03:13:44.022Z,13.12
2023-03-24T03:16:15.823Z,13.28
2023-03-24T03:18:53.084Z,13.04
2023-03-24T03:21:23.242Z,13.12
2023-03-24T03:23:53.876Z,12.66
2023-03-24T03:26:23.407Z,12.78
2023-03-24T03:28:57.412Z,12.95
2023-03-24T03:31:29.116Z,12.81
2023-03-24T03:34:02.776Z,12.51
2023-03-24T03:36:32.755Z,12.82
2023-03-24T03:39:23.380Z,12.97
2023-03-24T03:41:49.521Z,12.91
2023-03-24T03:44:15.733Z,12.63
2023-03-24T03:46:42.362Z,12.86
2023-03-24T03:49:08.574Z,12.82
2023-03-24T03:51:35.185Z,12.78
2023-03-24T03:54:06.206Z,12.84
2023-03-24T03:56:34.760Z,12.94
2023-03-24T03:59:03.391Z,12.56
2023-03-24T04:01:33.598Z,12.69
2023-03-24T04:04:11.092Z,12.83
2023-03-24T04:06:37.197Z,12.87
2023-03-24T04:09:19.661Z,13.01
2023-03-24T04:11:50.711Z,12.82
2023-03-24T04:14:46.334Z,12.89
2023-03-24T04:17:45.988Z,12.86
2023-03-24T04:20:17.018Z,12.90
2023-03-24T04:22:46.143Z,12.69
2023-03-24T04:25:44.389Z,12.91
2023-03-24T04:28:21.309Z,12.75
2023-03-24T04:31:00.591Z,13.01
2023-03-24T04:33:49.756Z,12.78
2023-03-24T04:36:22.822Z,12.48
2023-03-24T04:38:54.186Z,11.78
2023-03-24T04:41:21.525Z,12.83
2023-03-24T04:43:48.136Z,12.96
2023-03-24T04:46:17.244Z,12.81
2023-03-24T04:48:47.402Z,12.77
2023-03-24T04:51:14.871Z,12.69
2023-03-24T04:53:40.970Z,13.05
2023-03-24T04:56:25.597Z,12.97
2023-03-24T04:58:51.699Z,12.99
2023-03-24T05:01:20.638Z,13.14
2023-03-24T05:03:47.794Z,13.10
2023-03-24T05:06:14.156Z,12.78
2023-03-24T05:08:40.677Z,12.98
2023-03-24T05:11:06.904Z,12.78
2023-03-24T05:13:32.975Z,12.95
2023-03-24T05:15:59.180Z,13.02
2023-03-24T05:18:25.437Z,12.79
2023-03-24T05:20:53.000Z,12.85
2023-03-24T05:23:19.291Z,13.00
2023-03-24T05:25:46.635Z,13.05
2023-03-24T05:28:12.797Z,13.02
2023-03-24T05:30:38.920Z,13.01
2023-03-24T05:33:05.084Z,13.06
2023-03-24T05:35:31.191Z,13.02
2023-03-24T05:37:57.334Z,12.04
2023-03-24T05:40:23.412Z,12.78
2023-03-24T05:42:49.904Z,13.05
2023-03-24T05:45:16.364Z,12.71
2023-03-24T05:47:42.445Z,12.99
2023-03-24T05:50:09.065Z,13.04
2023-03-24T05:52:35.676Z,12.80
2023-03-24T05:55:02.062Z,12.98
2023-03-24T05:57:30.707Z,12.99
2023-03-24T05:59:57.275Z,13.11
2023-03-24T06:02:24.617Z,13.14
2023-03-24T06:04:51.167Z,13.20
2023-03-24T06:07:17.620Z,13.10
2023-03-24T06:09:46.101Z,13.15
2023-03-24T06:12:13.054Z,12.91
2023-03-24T06:14:39.892Z,13.13
2023-03-24T06:17:07.179Z,13.15
2023-03-24T06:19:34.108Z,13.33
2023-03-24T06:22:02.242Z,13.18
2023-03-24T06:24:29.369Z,13.03
2023-03-24T06:26:58.421Z,13.17
2023-03-24T06:29:24.509Z,13.27
2023-03-24T06:31:50.945Z,13.05
2023-03-24T06:34:17.120Z,13.31
2023-03-24T06:36:43.883Z,13.27
2023-03-24T06:39:10.004Z,13.39
2023-03-24T06:41:36.093Z,12.82
2023-03-24T06:44:03.004Z,12.54
2023-03-24T06:46:29.115Z,13.33
2023-03-24T06:48:55.663Z,13.26
2023-03-24T06:51:21.823Z,13.22
2023-03-24T06:53:47.891Z,13.36
2023-03-24T06:56:17.569Z,13.35
2023-03-24T06:58:44.308Z,13.48
2023-03-24T07:01:10.770Z,13.52
2023-03-24T07:03:37.944Z,13.56
2023-03-24T07:06:06.929Z,13.25
2023-03-24T07:08:38.164Z,12.86
2023-03-24T07:11:06.819Z,13.53
2023-03-24T07:13:32.992Z,12.81
2023-03-24T07:15:59.198Z,13.16
2023-03-24T07:18:25.639Z,13.66
2023-03-24T07:20:51.785Z,13.51
2023-03-24T07:23:17.943Z,13.51
2023-03-24T07:25:45.231Z,13.31
2023-03-24T07:28:11.344Z,13.26
2023-03-24T07:30:40.569Z,13.48
2023-03-24T07:33:10.094Z,13.54
2023-03-24T07:35:36.361Z,12.94
2023-03-24T07:38:02.490Z,13.61
2023-03-24T07:40:29.595Z,13.54
2023-03-24T07:42:59.846Z,13.48
2023-03-24T07:45:27.666Z,13.46
2023-03-24T07:47:54.005Z,13.53
2023-03-24T07:50:20.199Z,13.73
2023-03-24T07:52:47.960Z,13.75
2023-03-24T07:55:15.442Z,13.72
2023-03-24T07:57:42.601Z,12.74
2023-03-24T08:00:17.386Z,13.73
2023-03-24T08:02:45.354Z,13.84
2023-03-24T08:05:13.789Z,13.41
2023-03-24T08:07:44.041Z,13.96
2023-03-24T08:10:13.056Z,13.82
2023-03-24T08:12:39.568Z,13.96
2023-03-24T08:15:07.002Z,13.78
2023-03-24T08:17:33.575Z,14.22
2023-03-24T08:20:02.026Z,13.87
2023-03-24T08:22:29.651Z,14.05
2023-03-24T08:24:55.800Z,14.05
2023-03-24T08:27:22.014Z,13.88
2023-03-24T08:29:48.164Z,13.93
2023-03-24T08:32:15.312Z,14.13
2023-03-24T08:34:41.436Z,14.12
2023-03-24T08:37:12.344Z,13.38
2023-03-24T08:39:42.917Z,13.83
2023-03-24T08:42:08.982Z,13.70
2023-03-24T08:44:35.117Z,13.79
2023-03-24T08:47:06.012Z,13.93
2023-03-24T08:49:34.758Z,14.01
2023-03-24T08:52:01.117Z,13.88
2023-03-24T08:54:27.235Z,14.16
2023-03-24T08:56:58.267Z,14.14
2023-03-24T08:59:24.523Z,12.74
2023-03-24T09:01:51.199Z,14.11
2023-03-24T09:04:17.322Z,14.13
2023-03-24T09:06:49.618Z,14.07
2023-03-24T09:09:19.654Z,14.07
2023-03-24T09:11:49.824Z,14.27
2023-03-24T09:14:21.932Z,14.37
2023-03-24T09:16:51.856Z,14.42
2023-03-24T09:19:20.677Z,14.53
2023-03-24T09:21:50.391Z,14.38
2023-03-24T09:24:24.116Z,14.47
2023-03-24T09:26:54.815Z,14.28
2023-03-24T09:29:24.844Z,14.48
2023-03-24T09:31:56.310Z,14.06
2023-03-24T09:34:25.166Z,14.93
2023-03-24T09:36:55.625Z,14.77
2023-03-24T09:39:27.182Z,14.91
2023-03-24T09:42:08.336Z,14.79
2023-03-24T09:44:40.499Z,14.89
2023-03-24T09:47:18.782Z,14.67
2023-03-24T09:49:51.895Z,14.43
2023-03-24T09:52:26.305Z,14.11
2023-03-24T09:55:01.884Z,14.27
2023-03-24T09:57:36.671Z,14.26
2023-03-24T10:00:18.826Z,14.12
2023-03-24T10:02:45.412Z,14.15
2023-03-24T10:05:24.445Z,14.21
2023-03-24T10:07:59.312Z,14.30
2023-03-24T10:10:47.086Z,14.39
2023-03-24T10:13:48.691Z,14.42
2023-03-24T10:16:31.743Z,14.22
2023-03-24T10:19:13.187Z,14.27
2023-03-24T10:21:55.901Z,14.21
2023-03-24T10:24:49.302Z,14.08
2023-03-24T10:27:23.973Z,14.01
2023-03-24T10:30:02.998Z,13.91
2023-03-24T10:32:32.184Z,13.87
2023-03-24T10:35:09.129Z,13.94
2023-03-24T10:37:37.678Z,12.91
2023-03-24T10:40:13.021Z,13.08
2023-03-24T10:42:46.150Z,14.01
2023-03-24T10:45:25.488Z,14.33
2023-03-24T10:47:53.210Z,14.13
2023-03-24T10:50:29.632Z,13.40
2023-03-24T10:53:08.265Z,14.02
2023-03-24T10:55:43.504Z,13.52
2023-03-24T10:58:25.066Z,13.91
2023-03-24T11:00:58.260Z,13.97
2023-03-24T11:03:31.402Z,13.30
2023-03-24T11:06:03.944Z,14.18
2023-03-24T11:08:38.025Z,13.89
2023-03-24T11:11:30.579Z,13.87
2023-03-24T11:14:02.517Z,14.16
2023-03-24T11:16:43.249Z,13.98
2023-03-24T11:19:22.873Z,13.95
2023-03-24T11:22:00.813Z,14.20
2023-03-24T11:24:27.285Z,13.53
2023-03-24T11:27:02.537Z,13.91
2023-03-24T11:29:31.052Z,13.88
2023-03-24T11:32:13.246Z,14.02
2023-03-24T11:34:48.159Z,14.00
2023-03-24T11:37:18.587Z,13.78
2023-03-24T11:40:16.891Z,13.78
2023-03-24T11:42:57.402Z,13.68
2023-03-24T11:45:38.829Z,13.61
2023-03-24T11:48:25.778Z,13.50
2023-03-24T11:50:56.930Z,13.96
2023-03-24T11:53:34.292Z,13.85
2023-03-24T11:56:05.031Z,14.16
2023-03-24T11:58:49.016Z,14.08
2023-03-24T12:01:27.257Z,13.96
2023-03-24T12:04:39.372Z,14.50
2023-03-24T12:07:32.239Z,14.25
2023-03-24T12:10:20.832Z,14.60
2023-03-24T12:13:16.057Z,14.35
2023-03-24T12:16:20.761Z,14.75
2023-03-24T12:19:01.032Z,14.76
2023-03-24T12:21:50.366Z,15.55
2023-03-24T12:24:24.956Z,15.50
2023-03-24T12:26:59.061Z,16.48
2023-03-24T12:29:46.938Z,17.19
2023-03-24T12:32:24.473Z,16.33
2023-03-24T12:34:59.005Z,17.13
2023-03-24T12:37:48.866Z,17.50
2023-03-24T12:41:00.638Z,17.45
2023-03-24T12:43:55.384Z,17.58
2023-03-24T12:46:58.934Z,17.53
2023-03-24T12:49:57.964Z,17.26
2023-03-24T12:52:49.076Z,17.15
2023-03-24T12:55:24.633Z,17.31
2023-03-24T12:58:10.756Z,17.65
2023-03-24T13:01:19.902Z,18.42
2023-03-24T13:04:15.998Z,17.84
2023-03-24T13:06:59.764Z,17.67
2023-03-24T13:10:06.026Z,17.24
2023-03-24T13:12:54.656Z,17.60
2023-03-24T13:15:22.343Z,17.32
2023-03-24T13:18:16.772Z,16.53
2023-03-24T13:20:54.991Z,17.58
2023-03-24T13:23:54.143Z,17.10
2023-03-24T13:26:42.131Z,17.72
2023-03-24T13:29:13.572Z,16.81
2023-03-24T13:31:56.512Z,15.28
2023-03-24T13:34:34.199Z,16.46
2023-03-24T13:37:05.047Z,15.52
2023-03-24T13:39:35.421Z,16.22
2023-03-24T13:42:05.548Z,16.16
2023-03-24T13:44:37.916Z,16.12
2023-03-24T13:47:15.979Z,16.00
2023-03-24T13:49:51.561Z,16.45
2023-03-24T13:52:26.681Z,17.09
2023-03-24T13:54:57.348Z,17.46
2023-03-24T13:57:27.422Z,17.67
2023-03-24T14:00:07.954Z,17.29
2023-03-24T14:02:49.175Z,17.47
2023-03-24T14:05:23.319Z,18.09
2023-03-24T14:07:50.926Z,16.61
2023-03-24T14:10:18.356Z,16.77
2023-03-24T14:12:58.494Z,16.41
2023-03-24T14:15:31.565Z,16.01
2023-03-24T14:18:39.462Z,16.16
2023-03-24T14:21:10.701Z,16.02
2023-03-24T14:23:48.596Z,16.02
2023-03-24T14:26:19.307Z,16.11
2023-03-24T14:28:51.816Z,16.71
2023-03-24T14:31:30.136Z,16.91
2023-03-24T14:34:10.109Z,17.19
2023-03-24T14:36:43.426Z,17.49
2023-03-24T14:39:26.461Z,16.81
2023-03-24T14:41:59.303Z,16.69
2023-03-24T14:44:52.861Z,16.46
2023-03-24T14:47:29.894Z,16.35
2023-03-24T14:49:56.940Z,16.46
2023-03-24T14:52:32.285Z,16.49
2023-03-24T14:55:05.744Z,16.03
2023-03-24T14:57:38.806Z,16.38
2023-03-24T15:00:31.842Z,16.28
2023-03-24T15:03:00.642Z,16.30
2023-03-24T15:05:35.524Z,16.25
2023-03-24T15:08:21.836Z,16.31
2023-03-24T15:10:58.020Z,15.92
2023-03-24T15:13:48.136Z,15.98
2023-03-24T15:16:31.017Z,15.96
2023-03-24T15:19:07.731Z,16.08
2023-03-24T15:21:39.139Z,16.13
2023-03-24T15:24:22.189Z,15.86
2023-03-24T15:27:13.338Z,15.85
2023-03-24T15:29:46.286Z,15.84
2023-03-24T15:32:20.077Z,15.60
2023-03-24T15:34:59.035Z,15.69
2023-03-24T15:37:41.336Z,15.32
2023-03-24T15:40:30.915Z,15.55
2023-03-24T15:43:04.551Z,15.20
2023-03-24T15:45:43.815Z,15.23
2023-03-24T15:48:19.236Z,15.57
2023-03-24T15:51:01.318Z,15.30
2023-03-24T15:53:32.786Z,15.39
2023-03-24T15:56:30.875Z,15.38
2023-03-24T15:59:05.114Z,15.65
2023-03-24T16:01:38.678Z,15.46
2023-03-24T16:04:15.349Z,15.42
2023-03-24T16:06:53.579Z,15.47
2023-03-24T16:09:36.420Z,15.26
2023-03-24T16:12:10.032Z,15.43
2023-03-24T16:14:49.775Z,15.26
2023-03-24T16:17:19.765Z,15.49
2023-03-24T16:19:49.765Z,15.46
2023-03-24T16:22:22.108Z,14.82
2023-03-24T16:24:52.721Z,15.50
2023-03-24T16:27:22.542Z,15.45
2023-03-24T16:29:53.749Z,15.44
2023-03-24T16:32:24.044Z,15.37
2023-03-24T16:34:53.421Z,15.27
2023-03-24T16:37:23.368Z,15.29
2023-03-24T16:39:53.986Z,15.37
2023-03-24T16:42:23.981Z,15.27
2023-03-24T16:44:54.218Z,15.32
2023-03-24T16:47:24.161Z,15.32
2023-03-24T16:49:57.802Z,15.19
2023-03-24T16:52:27.623Z,15.18
2023-03-24T16:54:57.708Z,15.40
2023-03-24T16:57:27.541Z,15.32
2023-03-24T17:00:00.414Z,15.15
2023-03-24T17:02:28.160Z,15.23
2023-03-24T17:04:58.273Z,15.18
2023-03-24T17:07:31.074Z,15.22
2023-03-24T17:10:01.418Z,15.21
2023-03-24T17:12:31.792Z,15.33
2023-03-24T17:15:02.041Z,15.15
2023-03-24T17:17:32.298Z,15.37
2023-03-24T17:20:05.208Z,15.05
2023-03-24T17:22:32.505Z,15.48
2023-03-24T17:25:05.053Z,15.31
2023-03-24T17:27:35.518Z,15.34
2023-03-24T17:30:06.557Z,15.39
2023-03-24T17:32:35.591Z,15.50
2023-03-24T17:35:06.329Z,15.63
2023-03-24T17:37:36.097Z,15.33
2023-03-24T17:40:08.891Z,15.33
2023-03-24T17:42:35.992Z,14.90
2023-03-24T17:45:03.197Z,14.82
2023-03-24T17:47:29.733Z,14.92
2023-03-24T17:49:55.955Z,14.48
2023-03-24T17:52:22.404Z,14.03
2023-03-24T17:54:48.489Z,14.08
2023-03-24T17:57:14.832Z,14.21
2023-03-24T17:59:40.938Z,14.32
2023-03-24T18:02:09.181Z,14.20
2023-03-24T18:04:35.442Z,14.59
2023-03-24T18:07:02.108Z,14.33
2023-03-24T18:09:31.240Z,14.45
2023-03-24T18:11:57.847Z,14.20
2023-03-24T18:14:24.196Z,14.31
2023-03-24T18:16:50.320Z,14.24
2023-03-24T18:19:16.600Z,13.76
2023-03-24T18:21:43.687Z,13.33
2023-03-24T18:24:09.993Z,14.15
2023-03-24T18:26:36.098Z,14.24
2023-03-24T18:29:02.914Z,14.02
2023-03-24T18:31:31.697Z,14.37
2023-03-24T18:33:58.182Z,14.02
2023-03-24T18:36:28.439Z,14.05
2023-03-24T18:39:00.196Z,13.81
2023-03-24T18:41:27.914Z,14.01
2023-03-24T18:43:54.564Z,13.93
2023-03-24T18:46:21.261Z,14.22
2023-03-24T18:48:47.459Z,14.35
2023-03-24T18:51:14.609Z,13.54
2023-03-24T18:53:40.861Z,13.48
2023-03-24T18:56:07.796Z,13.40
2023-03-24T18:58:34.885Z,12.68
2023-03-24T19:01:08.254Z,12.69
2023-03-24T19:03:34.976Z,12.74
2023-03-24T19:06:05.480Z,12.86
2023-03-24T19:08:32.767Z,12.26
2023-03-24T19:10:59.427Z,12.55
2023-03-24T19:13:25.717Z,12.31
2023-03-24T19:15:55.729Z,12.82
2023-03-24T19:18:22.771Z,12.80
2023-03-24T19:20:49.410Z,12.86
2023-03-24T19:23:15.472Z,12.86
2023-03-24T19:25:43.086Z,12.44
2023-03-24T19:28:09.213Z,12.44
2023-03-24T19:30:37.983Z,12.27
2023-03-24T19:33:04.166Z,12.60
2023-03-24T19:35:30.635Z,12.43
2023-03-24T19:37:57.849Z,12.46
2023-03-24T19:40:23.923Z,12.62
2023-03-24T19:42:50.377Z,12.45
2023-03-24T19:45:17.293Z,11.78
2023-03-24T19:47:45.158Z,12.48
2023-03-24T19:50:12.120Z,12.46
2023-03-24T19:52:38.605Z,12.40
2023-03-24T19:55:08.295Z,12.16
2023-03-24T19:57:35.028Z,11.92
2023-03-24T20:00:01.579Z,12.18
2023-03-24T20:02:27.968Z,12.06
2023-03-24T20:05:03.088Z,10.73
2023-03-24T20:07:34.593Z,12.39
2023-03-24T20:10:06.691Z,12.24
2023-03-24T20:12:42.138Z,11.98
2023-03-24T20:15:13.192Z,12.23
2023-03-24T20:17:43.872Z,12.22
2023-03-24T20:20:25.389Z,12.21
2023-03-24T20:22:54.996Z,12.01
2023-03-24T20:25:25.702Z,12.33
2023-03-24T20:27:56.989Z,12.31
2023-03-24T20:30:29.734Z,12.24
2023-03-24T20:32:58.746Z,12.14
2023-03-24T20:35:28.842Z,12.27
2023-03-24T20:38:02.321Z,12.37
2023-03-24T20:40:32.736Z,12.10
2023-03-24T20:43:03.169Z,11.93
2023-03-24T20:45:36.075Z,11.90
2023-03-24T20:48:07.387Z,11.04
2023-03-24T20:50:38.346Z,11.92
2023-03-24T20:53:09.098Z,11.87
2023-03-24T20:55:39.573Z,11.65
2023-03-24T20:58:09.846Z,11.41
2023-03-24T21:00:45.261Z,11.93
2023-03-24T21:03:18.710Z,11.86
2023-03-24T21:05:48.732Z,11.56
2023-03-24T21:08:18.363Z,12.00
2023-03-24T21:10:48.695Z,12.05
2023-03-24T21:13:21.653Z,12.41
2023-03-24T21:15:48.818Z,12.23
2023-03-24T21:18:19.064Z,12.46
2023-03-24T21:20:57.027Z,12.52
2023-03-24T21:23:23.923Z,12.39
2023-03-24T21:25:54.186Z,11.68
2023-03-24T21:28:30.118Z,12.05
2023-03-24T21:30:58.001Z,11.48
2023-03-24T21:33:27.698Z,11.70
2023-03-24T21:35:58.501Z,11.36
2023-03-24T21:38:29.717Z,11.43
2023-03-24T21:41:00.893Z,11.66
2023-03-24T21:43:29.782Z,11.72
2023-03-24T21:46:01.530Z,11.53
2023-03-24T21:48:32.137Z,11.28
2023-03-24T21:51:02.929Z,11.04
2023-03-24T21:53:31.307Z,11.18
2023-03-24T21:56:05.026Z,8.42
2023-03-24T21:58:34.485Z,11.54
2023-03-24T22:01:04.807Z,11.08
2023-03-24T22:03:36.435Z,11.45
2023-03-24T22:06:09.704Z,11.50
2023-03-24T22:08:37.861Z,11.19
2023-03-24T22:11:06.080Z,11.57
2023-03-24T22:13:39.888Z,11.51
2023-03-24T22:16:10.384Z,11.23
2023-03-24T22:18:40.718Z,11.34
2023-03-24T22:21:12.560Z,11.21
2023-03-24T22:23:43.198Z,11.04
2023-03-24T22:26:16.122Z,11.32
2023-03-24T22:28:43.349Z,10.70
2023-03-24T22:31:16.779Z,10.60
2023-03-24T22:33:47.255Z,10.74
2023-03-24T22:36:16.016Z,11.08
2023-03-24T22:38:46.108Z,10.85
2023-03-24T22:41:16.444Z,10.84
2023-03-24T22:43:46.165Z,11.13
2023-03-24T22:46:17.103Z,11.07
2023-03-24T22:48:52.424Z,11.21
2023-03-24T22:51:22.746Z,11.15
2023-03-24T22:53:52.578Z,11.28
2023-03-24T22:56:22.801Z,11.43
2023-03-24T22:58:53.052Z,11.24
2023-03-24T23:01:23.147Z,11.45
2023-03-24T23:03:52.938Z,11.39
2023-03-24T23:06:27.877Z,11.34
2023-03-24T23:08:58.760Z,10.65
2023-03-24T23:11:27.241Z,11.47
2023-03-24T23:14:03.901Z,11.54
2023-03-24T23:16:34.515Z,11.29
2023-03-24T23:19:01.424Z,10.65
2023-03-24T23:21:28.188Z,11.33
2023-03-24T23:23:59.921Z,11.29
2023-03-24T23:26:30.481Z,11.31
2023-03-24T23:29:00.651Z,11.34
2023-03-24T23:31:31.419Z,11.55
2023-03-24T23:34:03.746Z,11.17
2023-03-24T23:36:33.448Z,11.20
2023-03-24T23:39:01.943Z,11.35
2023-03-24T23:41:32.141Z,11.20
2023-03-24T23:44:02.067Z,11.15
2023-03-24T23:46:32.947Z,11.33
2023-03-24T23:49:02.553Z,11.29
2023-03-24T23:51:35.364Z,11.16
2023-03-24T23:54:05.607Z,11.04
2023-03-24T23:56:36.025Z,11.15
2023-03-24T23:59:07.084Z,11.20
